sensor_id;sensor_type;location;lat;lon;timestamp;P1;durP1;ratioP1;P2;durP2;ratioP2
71395;SDS011;59888;55.814;37.132;2022-09-09T18:21:25;19.30;;;9.05;;
71395;SDS011;59888;55.814;37.132;2022-09-09T18:23:53;13.43;;;7.68;;
71395;SDS011;59888;55.814;37.132;2022-09-09T18:26:23;14.45;;;6.65;;
71395;SDS011;59888;55.814;37.132;2022-09-09T18:28:55;10.23;;;6.05;;
71395;SDS011;59888;55.814;37.132;2022-09-09T18:31:22;8.40;;;5.65;;
71395;SDS011;59888;55.814;37.132;2022-09-09T18:33:51;10.68;;;5.55;;
71395;SDS011;59888;55.814;37.132;2022-09-09T18:36:19;11.05;;;5.57;;
71395;SDS011;59888;55.814;37.132;2022-09-09T18:38:47;8.65;;;4.70;;
71395;SDS011;59888;55.814;37.132;2022-09-09T18:43:40;9.10;;;4.95;;
71395;SDS011;59888;55.814;37.132;2022-09-09T18:46:07;12.18;;;5.57;;
71395;SDS011;59888;55.814;37.132;2022-09-09T18:48:34;17.48;;;6.20;;
71395;SDS011;59888;55.814;37.132;2022-09-09T18:51:01;9.38;;;5.47;;
71395;SDS011;59888;55.814;37.132;2022-09-09T18:53:31;11.23;;;5.10;;
71395;SDS011;59888;55.814;37.132;2022-09-09T18:55:58;11.80;;;5.50;;
71395;SDS011;59888;55.814;37.132;2022-09-09T18:58:29;14.95;;;5.70;;
71395;SDS011;59888;55.814;37.132;2022-09-09T19:00:56;8.98;;;5.20;;
71395;SDS011;59888;55.814;37.132;2022-09-09T19:03:22;12.93;;;5.60;;
71395;SDS011;59888;55.814;37.132;2022-09-09T19:05:49;12.93;;;5.60;;
71395;SDS011;59888;55.814;37.132;2022-09-09T19:08:16;14.52;;;7.00;;
71395;SDS011;59888;55.814;37.132;2022-09-09T19:10:45;16.05;;;7.30;;
71395;SDS011;59888;55.814;37.132;2022-09-09T19:13:12;16.27;;;7.13;;
71395;SDS011;59888;55.814;37.132;2022-09-09T19:15:39;15.25;;;6.72;;
71395;SDS011;59888;55.814;37.132;2022-09-09T19:18:05;16.05;;;6.80;;
71395;SDS011;59888;55.814;37.132;2022-09-09T19:20:31;16.70;;;7.57;;
71395;SDS011;59888;55.814;37.132;2022-09-09T19:22:57;16.55;;;6.88;;
71395;SDS011;59888;55.814;37.132;2022-09-09T19:25:23;14.15;;;6.90;;
71395;SDS011;59888;55.814;37.132;2022-09-09T19:27:50;16.48;;;8.10;;
71395;SDS011;59888;55.814;37.132;2022-09-09T19:30:16;14.32;;;6.95;;
71395;SDS011;59888;55.814;37.132;2022-09-09T19:32:42;16.38;;;6.90;;
71395;SDS011;59888;55.814;37.132;2022-09-09T19:35:08;15.77;;;7.78;;
71395;SDS011;59888;55.814;37.132;2022-09-09T19:37:35;20.13;;;7.38;;
71395;SDS011;59888;55.814;37.132;2022-09-09T19:40:02;20.98;;;8.05;;
71395;SDS011;59888;55.814;37.132;2022-09-09T19:42:30;17.45;;;7.65;;
71395;SDS011;59888;55.814;37.132;2022-09-09T19:44:56;26.25;;;8.27;;
71395;SDS011;59888;55.814;37.132;2022-09-09T19:47:22;17.30;;;7.97;;
71395;SDS011;59888;55.814;37.132;2022-09-09T19:49:48;18.90;;;8.50;;
71395;SDS011;59888;55.814;37.132;2022-09-09T19:52:17;21.13;;;7.72;;
71395;SDS011;59888;55.814;37.132;2022-09-09T19:54:44;17.95;;;7.20;;
71395;SDS011;59888;55.814;37.132;2022-09-09T19:57:11;17.20;;;7.32;;
71395;SDS011;59888;55.814;37.132;2022-09-09T19:59:36;15.45;;;7.75;;
71395;SDS011;59888;55.814;37.132;2022-09-09T20:02:02;16.67;;;7.07;;
71395;SDS011;59888;55.814;37.132;2022-09-09T20:04:28;13.10;;;6.18;;
71395;SDS011;59888;55.814;37.132;2022-09-09T20:06:54;13.63;;;6.65;;
71395;SDS011;59888;55.814;37.132;2022-09-09T20:09:20;18.55;;;7.18;;
71395;SDS011;59888;55.814;37.132;2022-09-09T20:11:51;18.38;;;6.45;;
71395;SDS011;59888;55.814;37.132;2022-09-09T20:14:17;15.90;;;6.65;;
71395;SDS011;59888;55.814;37.132;2022-09-09T20:16:44;14.57;;;6.45;;
71395;SDS011;59888;55.814;37.132;2022-09-09T20:19:11;11.80;;;6.30;;
71395;SDS011;59888;55.814;37.132;2022-09-09T20:21:39;12.70;;;6.10;;
71395;SDS011;59888;55.814;37.132;2022-09-09T20:24:09;12.68;;;6.35;;
71395;SDS011;59888;55.814;37.132;2022-09-09T20:26:37;13.15;;;5.93;;
71395;SDS011;59888;55.814;37.132;2022-09-09T20:29:04;11.43;;;5.68;;
71395;SDS011;59888;55.814;37.132;2022-09-09T20:31:32;14.95;;;6.82;;
71395;SDS011;59888;55.814;37.132;2022-09-09T20:34:05;13.73;;;6.85;;
71395;SDS011;59888;55.814;37.132;2022-09-09T20:36:34;12.05;;;6.65;;
71395;SDS011;59888;55.814;37.132;2022-09-09T20:39:03;12.02;;;5.85;;
71395;SDS011;59888;55.814;37.132;2022-09-09T20:41:32;12.68;;;6.40;;
71395;SDS011;59888;55.814;37.132;2022-09-09T20:44:03;12.68;;;7.28;;
71395;SDS011;59888;55.814;37.132;2022-09-09T20:46:37;14.27;;;6.95;;
71395;SDS011;59888;55.814;37.132;2022-09-09T20:49:09;16.63;;;8.20;;
71395;SDS011;59888;55.814;37.132;2022-09-09T20:51:35;13.98;;;7.18;;
71395;SDS011;59888;55.814;37.132;2022-09-09T20:54:03;15.30;;;7.30;;
71395;SDS011;59888;55.814;37.132;2022-09-09T20:56:34;15.43;;;7.43;;
71395;SDS011;59888;55.814;37.132;2022-09-09T20:59:03;17.10;;;7.38;;
71395;SDS011;59888;55.814;37.132;2022-09-09T21:01:30;18.40;;;8.50;;
71395;SDS011;59888;55.814;37.132;2022-09-09T21:03:56;15.80;;;7.40;;
71395;SDS011;59888;55.814;37.132;2022-09-09T21:06:22;15.63;;;7.97;;
71395;SDS011;59888;55.814;37.132;2022-09-09T21:08:48;16.77;;;7.93;;
71395;SDS011;59888;55.814;37.132;2022-09-09T21:11:15;14.80;;;7.72;;
71395;SDS011;59888;55.814;37.132;2022-09-09T21:13:42;16.48;;;7.68;;
71395;SDS011;59888;55.814;37.132;2022-09-09T21:16:09;17.95;;;8.63;;
71395;SDS011;59888;55.814;37.132;2022-09-09T21:18:38;15.63;;;8.13;;
71395;SDS011;59888;55.814;37.132;2022-09-09T21:21:05;15.70;;;8.10;;
71395;SDS011;59888;55.814;37.132;2022-09-09T21:23:31;25.40;;;9.05;;
71395;SDS011;59888;55.814;37.132;2022-09-09T21:25:58;17.70;;;8.27;;
71395;SDS011;59888;55.814;37.132;2022-09-09T21:28:23;17.88;;;8.75;;
71395;SDS011;59888;55.814;37.132;2022-09-09T21:30:50;20.40;;;9.38;;
71395;SDS011;59888;55.814;37.132;2022-09-09T21:33:18;18.95;;;8.50;;
71395;SDS011;59888;55.814;37.132;2022-09-09T21:35:45;14.80;;;8.35;;
71395;SDS011;59888;55.814;37.132;2022-09-09T21:38:21;17.77;;;8.02;;
71395;SDS011;59888;55.814;37.132;2022-09-09T21:40:48;19.55;;;8.60;;
71395;SDS011;59888;55.814;37.132;2022-09-09T21:43:15;17.63;;;8.57;;
71395;SDS011;59888;55.814;37.132;2022-09-09T21:45:42;18.13;;;8.93;;
71395;SDS011;59888;55.814;37.132;2022-09-09T21:48:09;19.85;;;9.02;;
71395;SDS011;59888;55.814;37.132;2022-09-09T21:50:37;20.02;;;8.93;;
71395;SDS011;59888;55.814;37.132;2022-09-09T21:53:05;18.65;;;8.85;;
71395;SDS011;59888;55.814;37.132;2022-09-09T21:55:34;15.73;;;9.40;;
71395;SDS011;59888;55.814;37.132;2022-09-09T21:58:01;22.02;;;9.32;;
71395;SDS011;59888;55.814;37.132;2022-09-09T22:00:28;15.70;;;8.57;;
71395;SDS011;59888;55.814;37.132;2022-09-09T22:02:54;15.32;;;8.70;;
71395;SDS011;59888;55.814;37.132;2022-09-09T22:05:19;14.02;;;8.50;;
71395;SDS011;59888;55.814;37.132;2022-09-09T22:07:45;19.88;;;8.93;;
71395;SDS011;59888;55.814;37.132;2022-09-09T22:10:11;19.05;;;9.80;;
71395;SDS011;59888;55.814;37.132;2022-09-09T22:12:37;19.08;;;9.80;;
71395;SDS011;59888;55.814;37.132;2022-09-09T22:15:03;17.60;;;9.68;;
71395;SDS011;59888;55.814;37.132;2022-09-09T22:17:32;17.58;;;8.98;;
71395;SDS011;59888;55.814;37.132;2022-09-09T22:19:58;18.52;;;9.65;;
71395;SDS011;59888;55.814;37.132;2022-09-09T22:22:25;17.92;;;9.13;;
71395;SDS011;59888;55.814;37.132;2022-09-09T22:24:50;17.77;;;8.82;;
71395;SDS011;59888;55.814;37.132;2022-09-09T22:27:17;17.52;;;9.10;;
71395;SDS011;59888;55.814;37.132;2022-09-09T22:29:43;18.40;;;9.27;;
71395;SDS011;59888;55.814;37.132;2022-09-09T22:32:09;16.23;;;8.48;;
71395;SDS011;59888;55.814;37.132;2022-09-09T22:34:38;17.55;;;8.63;;
71395;SDS011;59888;55.814;37.132;2022-09-09T22:37:04;17.67;;;8.57;;
71395;SDS011;59888;55.814;37.132;2022-09-09T22:39:30;20.25;;;9.43;;
71395;SDS011;59888;55.814;37.132;2022-09-09T22:41:57;15.52;;;8.77;;
71395;SDS011;59888;55.814;37.132;2022-09-09T22:44:24;17.80;;;9.63;;
71395;SDS011;59888;55.814;37.132;2022-09-09T22:46:54;13.98;;;8.13;;
71395;SDS011;59888;55.814;37.132;2022-09-09T22:49:23;14.85;;;8.75;;
71395;SDS011;59888;55.814;37.132;2022-09-09T22:51:49;17.48;;;8.98;;
71395;SDS011;59888;55.814;37.132;2022-09-09T22:54:15;17.25;;;8.35;;
71395;SDS011;59888;55.814;37.132;2022-09-09T22:56:49;16.75;;;8.43;;
71395;SDS011;59888;55.814;37.132;2022-09-09T22:59:16;20.65;;;8.75;;
71395;SDS011;59888;55.814;37.132;2022-09-09T23:01:43;16.58;;;8.65;;
71395;SDS011;59888;55.814;37.132;2022-09-09T23:04:09;21.50;;;9.30;;
71395;SDS011;59888;55.814;37.132;2022-09-09T23:06:36;20.27;;;9.15;;
71395;SDS011;59888;55.814;37.132;2022-09-09T23:09:04;19.48;;;9.93;;
71395;SDS011;59888;55.814;37.132;2022-09-09T23:11:31;19.35;;;9.27;;
71395;SDS011;59888;55.814;37.132;2022-09-09T23:14:00;18.58;;;9.18;;
71395;SDS011;59888;55.814;37.132;2022-09-09T23:16:28;20.70;;;10.68;;
71395;SDS011;59888;55.814;37.132;2022-09-09T23:19:08;21.08;;;10.30;;
71395;SDS011;59888;55.814;37.132;2022-09-09T23:21:40;24.95;;;11.52;;
71395;SDS011;59888;55.814;37.132;2022-09-09T23:24:10;23.88;;;10.60;;
71395;SDS011;59888;55.814;37.132;2022-09-09T23:26:38;28.27;;;12.00;;
71395;SDS011;59888;55.814;37.132;2022-09-09T23:29:04;22.13;;;10.60;;
71395;SDS011;59888;55.814;37.132;2022-09-09T23:31:32;27.25;;;11.20;;
71395;SDS011;59888;55.814;37.132;2022-09-09T23:34:01;27.52;;;11.32;;
71395;SDS011;59888;55.814;37.132;2022-09-09T23:36:27;27.90;;;12.13;;
71395;SDS011;59888;55.814;37.132;2022-09-09T23:38:54;22.45;;;11.25;;
71395;SDS011;59888;55.814;37.132;2022-09-09T23:41:25;24.30;;;11.05;;
71395;SDS011;59888;55.814;37.132;2022-09-09T23:43:52;22.83;;;9.95;;
71395;SDS011;59888;55.814;37.132;2022-09-09T23:46:19;25.42;;;10.63;;
71395;SDS011;59888;55.814;37.132;2022-09-09T23:48:47;22.08;;;10.10;;
71395;SDS011;59888;55.814;37.132;2022-09-09T23:51:17;23.42;;;10.45;;
71395;SDS011;59888;55.814;37.132;2022-09-09T23:53:47;18.67;;;10.15;;
71395;SDS011;59888;55.814;37.132;2022-09-09T23:56:20;20.92;;;9.93;;
71395;SDS011;59888;55.814;37.132;2022-09-09T23:59:08;23.65;;;10.05;;
